sensor_id;sensor_type;location;lat;lon;timestamp;P1;durP1;ratioP1;P2;durP2;ratioP2
18685;SDS011;9473;52.342;13.110;2023-04-01T00:00:51;2.72;;;1.10;;
18685;SDS011;9473;52.342;13.110;2023-04-01T00:03:19;3.10;;;1.23;;
18685;SDS011;9473;52.342;13.110;2023-04-01T00:05:46;2.58;;;1.40;;
18685;SDS011;9473;52.342;13.110;2023-04-01T00:08:14;2.90;;;1.45;;
18685;SDS011;9473;52.342;13.110;2023-04-01T00:10:41;4.57;;;1.77;;
18685;SDS011;9473;52.342;13.110;2023-04-01T00:13:08;2.50;;;1.50;;
18685;SDS011;9473;52.342;13.110;2023-04-01T00:15:35;5.20;;;1.65;;
18685;SDS011;9473;52.342;13.110;2023-04-01T00:18:02;6.07;;;1.60;;
18685;SDS011;9473;52.342;13.110;2023-04-01T00:20:30;4.90;;;1.40;;
18685;SDS011;9473;52.342;13.110;2023-04-01T00:22:57;2.65;;;1.30;;
18685;SDS011;9473;52.342;13.110;2023-04-01T00:25:24;3.92;;;1.30;;
18685;SDS011;9473;52.342;13.110;2023-04-01T00:27:51;3.67;;;1.30;;
18685;SDS011;9473;52.342;13.110;2023-04-01T00:30:18;2.60;;;1.25;;
18685;SDS011;9473;52.342;13.110;2023-04-01T00:32:45;8.00;;;1.52;;
18685;SDS011;9473;52.342;13.110;2023-04-01T00:35:12;2.63;;;1.25;;
18685;SDS011;9473;52.342;13.110;2023-04-01T00:37:40;3.70;;;1.20;;
18685;SDS011;9473;52.342;13.110;2023-04-01T00:40:10;3.28;;;1.38;;
18685;SDS011;9473;52.342;13.110;2023-04-01T00:42:45;5.00;;;1.50;;
18685;SDS011;9473;52.342;13.110;2023-04-01T00:45:29;2.47;;;1.48;;
18685;SDS011;9473;52.342;13.110;2023-04-01T00:47:56;5.18;;;1.45;;
18685;SDS011;9473;52.342;13.110;2023-04-01T00:50:25;1.90;;;1.20;;
18685;SDS011;9473;52.342;13.110;2023-04-01T00:52:54;3.08;;;1.30;;
18685;SDS011;9473;52.342;13.110;2023-04-01T00:55:21;2.72;;;1.38;;
18685;SDS011;9473;52.342;13.110;2023-04-01T00:57:49;3.15;;;1.20;;
18685;SDS011;9473;52.342;13.110;2023-04-01T01:00:17;2.97;;;1.23;;
18685;SDS011;9473;52.342;13.110;2023-04-01T01:02:45;4.35;;;1.20;;
18685;SDS011;9473;52.342;13.110;2023-04-01T01:05:12;3.58;;;1.30;;
18685;SDS011;9473;52.342;13.110;2023-04-01T01:07:41;2.42;;;1.10;;
18685;SDS011;9473;52.342;13.110;2023-04-01T01:10:15;1.95;;;1.13;;
18685;SDS011;9473;52.342;13.110;2023-04-01T01:12:44;2.97;;;1.20;;
18685;SDS011;9473;52.342;13.110;2023-04-01T01:15:13;2.60;;;1.30;;
18685;SDS011;9473;52.342;13.110;2023-04-01T01:17:44;3.33;;;1.38;;
18685;SDS011;9473;52.342;13.110;2023-04-01T01:20:19;4.72;;;1.40;;
18685;SDS011;9473;52.342;13.110;2023-04-01T01:22:52;5.18;;;1.50;;
18685;SDS011;9473;52.342;13.110;2023-04-01T01:25:28;2.63;;;1.23;;
18685;SDS011;9473;52.342;13.110;2023-04-01T01:27:58;4.40;;;1.42;;
18685;SDS011;9473;52.342;13.110;2023-04-01T01:30:35;1.77;;;1.10;;
18685;SDS011;9473;52.342;13.110;2023-04-01T01:33:10;2.92;;;1.48;;
18685;SDS011;9473;52.342;13.110;2023-04-01T01:35:41;3.53;;;1.05;;
18685;SDS011;9473;52.342;13.110;2023-04-01T01:38:11;6.05;;;1.67;;
18685;SDS011;9473;52.342;13.110;2023-04-01T01:40:40;3.58;;;1.20;;
18685;SDS011;9473;52.342;13.110;2023-04-01T01:43:09;5.18;;;1.60;;
18685;SDS011;9473;52.342;13.110;2023-04-01T01:45:38;3.22;;;1.00;;
18685;SDS011;9473;52.342;13.110;2023-04-01T01:48:07;1.95;;;1.05;;
18685;SDS011;9473;52.342;13.110;2023-04-01T01:50:36;2.80;;;1.10;;
18685;SDS011;9473;52.342;13.110;2023-04-01T01:53:05;5.65;;;1.25;;
18685;SDS011;9473;52.342;13.110;2023-04-01T01:55:33;2.80;;;1.00;;
18685;SDS011;9473;52.342;13.110;2023-04-01T01:58:00;2.58;;;0.90;;
18685;SDS011;9473;52.342;13.110;2023-04-01T02:00:29;4.80;;;1.20;;
18685;SDS011;9473;52.342;13.110;2023-04-01T02:02:56;4.43;;;1.27;;
18685;SDS011;9473;52.342;13.110;2023-04-01T02:05:25;2.70;;;0.90;;
18685;SDS011;9473;52.342;13.110;2023-04-01T02:07:55;4.68;;;1.38;;
18685;SDS011;9473;52.342;13.110;2023-04-01T02:10:25;3.83;;;1.08;;
18685;SDS011;9473;52.342;13.110;2023-04-01T02:12:52;3.10;;;1.00;;
18685;SDS011;9473;52.342;13.110;2023-04-01T02:15:20;2.40;;;1.08;;
18685;SDS011;9473;52.342;13.110;2023-04-01T02:17:47;2.05;;;1.15;;
18685;SDS011;9473;52.342;13.110;2023-04-01T02:20:18;3.75;;;1.38;;
18685;SDS011;9473;52.342;13.110;2023-04-01T02:22:48;5.03;;;1.80;;
18685;SDS011;9473;52.342;13.110;2023-04-01T02:25:17;3.78;;;1.27;;
18685;SDS011;9473;52.342;13.110;2023-04-01T02:27:46;2.38;;;1.30;;
18685;SDS011;9473;52.342;13.110;2023-04-01T02:30:13;2.47;;;1.10;;
18685;SDS011;9473;52.342;13.110;2023-04-01T02:32:40;3.08;;;1.25;;
18685;SDS011;9473;52.342;13.110;2023-04-01T02:35:08;8.02;;;1.50;;
18685;SDS011;9473;52.342;13.110;2023-04-01T02:37:36;5.13;;;1.60;;
18685;SDS011;9473;52.342;13.110;2023-04-01T02:40:04;4.18;;;1.20;;
18685;SDS011;9473;52.342;13.110;2023-04-01T02:42:32;4.40;;;1.17;;
18685;SDS011;9473;52.342;13.110;2023-04-01T02:45:00;2.80;;;1.23;;
18685;SDS011;9473;52.342;13.110;2023-04-01T02:47:27;3.70;;;1.20;;
18685;SDS011;9473;52.342;13.110;2023-04-01T02:49:55;4.10;;;1.00;;
18685;SDS011;9473;52.342;13.110;2023-04-01T02:52:23;4.63;;;1.10;;
18685;SDS011;9473;52.342;13.110;2023-04-01T02:54:50;4.30;;;1.52;;
18685;SDS011;9473;52.342;13.110;2023-04-01T02:57:17;2.08;;;1.30;;
18685;SDS011;9473;52.342;13.110;2023-04-01T02:59:44;4.10;;;1.55;;
18685;SDS011;9473;52.342;13.110;2023-04-01T03:02:12;7.50;;;1.52;;
18685;SDS011;9473;52.342;13.110;2023-04-01T03:04:40;2.85;;;1.48;;
18685;SDS011;9473;52.342;13.110;2023-04-01T03:07:07;4.25;;;1.25;;
18685;SDS011;9473;52.342;13.110;2023-04-01T03:09:34;4.70;;;1.50;;
18685;SDS011;9473;52.342;13.110;2023-04-01T03:12:02;4.00;;;1.40;;
18685;SDS011;9473;52.342;13.110;2023-04-01T03:14:28;4.15;;;1.55;;
18685;SDS011;9473;52.342;13.110;2023-04-01T03:16:55;3.90;;;1.60;;
18685;SDS011;9473;52.342;13.110;2023-04-01T03:19:24;5.22;;;1.48;;
18685;SDS011;9473;52.342;13.110;2023-04-01T03:21:50;2.20;;;1.30;;
18685;SDS011;9473;52.342;13.110;2023-04-01T03:24:17;2.17;;;1.30;;
18685;SDS011;9473;52.342;13.110;2023-04-01T03:26:44;3.45;;;1.30;;
18685;SDS011;9473;52.342;13.110;2023-04-01T03:29:11;4.30;;;1.40;;
18685;SDS011;9473;52.342;13.110;2023-04-01T03:31:40;2.92;;;1.10;;
18685;SDS011;9473;52.342;13.110;2023-04-01T03:34:07;4.10;;;1.50;;
18685;SDS011;9473;52.342;13.110;2023-04-01T03:36:36;4.80;;;1.45;;
18685;SDS011;9473;52.342;13.110;2023-04-01T03:39:04;5.53;;;1.40;;
18685;SDS011;9473;52.342;13.110;2023-04-01T03:41:31;4.75;;;1.40;;
18685;SDS011;9473;52.342;13.110;2023-04-01T03:43:58;6.15;;;1.83;;
18685;SDS011;9473;52.342;13.110;2023-04-01T03:46:25;4.05;;;1.38;;
18685;SDS011;9473;52.342;13.110;2023-04-01T03:48:52;5.80;;;1.45;;
18685;SDS011;9473;52.342;13.110;2023-04-01T03:51:19;5.38;;;1.20;;
18685;SDS011;9473;52.342;13.110;2023-04-01T03:53:47;4.10;;;1.15;;
18685;SDS011;9473;52.342;13.110;2023-04-01T03:56:15;3.38;;;1.40;;
18685;SDS011;9473;52.342;13.110;2023-04-01T03:58:42;6.50;;;1.58;;
18685;SDS011;9473;52.342;13.110;2023-04-01T04:01:16;3.58;;;1.30;;
18685;SDS011;9473;52.342;13.110;2023-04-01T04:03:43;4.13;;;1.40;;
18685;SDS011;9473;52.342;13.110;2023-04-01T04:06:11;3.50;;;1.40;;
18685;SDS011;9473;52.342;13.110;2023-04-01T04:08:38;3.22;;;1.50;;
18685;SDS011;9473;52.342;13.110;2023-04-01T04:11:06;4.43;;;1.83;;
18685;SDS011;9473;52.342;13.110;2023-04-01T04:13:34;4.03;;;1.35;;
18685;SDS011;9473;52.342;13.110;2023-04-01T04:16:01;4.85;;;1.70;;
18685;SDS011;9473;52.342;13.110;2023-04-01T04:18:28;7.13;;;1.40;;
18685;SDS011;9473;52.342;13.110;2023-04-01T04:20:55;4.38;;;1.48;;
18685;SDS011;9473;52.342;13.110;2023-04-01T04:23:22;4.00;;;1.40;;
18685;SDS011;9473;52.342;13.110;2023-04-01T04:25:53;5.65;;;1.42;;
18685;SDS011;9473;52.342;13.110;2023-04-01T04:28:21;5.25;;;1.60;;
18685;SDS011;9473;52.342;13.110;2023-04-01T04:30:49;6.28;;;1.90;;
18685;SDS011;9473;52.342;13.110;2023-04-01T04:33:15;5.25;;;1.48;;
18685;SDS011;9473;52.342;13.110;2023-04-01T04:35:43;4.75;;;1.42;;
18685;SDS011;9473;52.342;13.110;2023-04-01T04:38:09;6.50;;;1.60;;
18685;SDS011;9473;52.342;13.110;2023-04-01T04:40:37;3.72;;;1.38;;
18685;SDS011;9473;52.342;13.110;2023-04-01T04:43:04;7.75;;;1.60;;
18685;SDS011;9473;52.342;13.110;2023-04-01T04:45:32;4.38;;;1.65;;
18685;SDS011;9473;52.342;13.110;2023-04-01T04:47:59;5.35;;;1.50;;
18685;SDS011;9473;52.342;13.110;2023-04-01T04:50:26;4.80;;;1.40;;
18685;SDS011;9473;52.342;13.110;2023-04-01T04:52:53;4.15;;;1.27;;
18685;SDS011;9473;52.342;13.110;2023-04-01T04:55:20;3.45;;;1.33;;
18685;SDS011;9473;52.342;13.110;2023-04-01T04:57:47;5.45;;;1.67;;
18685;SDS011;9473;52.342;13.110;2023-04-01T05:00:14;4.05;;;1.20;;
18685;SDS011;9473;52.342;13.110;2023-04-01T05:02:43;3.47;;;1.42;;
18685;SDS011;9473;52.342;13.110;2023-04-01T05:05:10;3.47;;;1.35;;
18685;SDS011;9473;52.342;13.110;2023-04-01T05:07:37;2.88;;;1.42;;
18685;SDS011;9473;52.342;13.110;2023-04-01T05:10:04;4.63;;;1.60;;
18685;SDS011;9473;52.342;13.110;2023-04-01T05:12:31;8.02;;;1.88;;
18685;SDS011;9473;52.342;13.110;2023-04-01T05:15:01;6.22;;;1.50;;
18685;SDS011;9473;52.342;13.110;2023-04-01T05:17:28;4.90;;;1.50;;
18685;SDS011;9473;52.342;13.110;2023-04-01T05:19:56;4.55;;;1.60;;
18685;SDS011;9473;52.342;13.110;2023-04-01T05:22:23;2.85;;;1.45;;
18685;SDS011;9473;52.342;13.110;2023-04-01T05:24:50;4.63;;;1.45;;
18685;SDS011;9473;52.342;13.110;2023-04-01T05:27:17;8.68;;;1.77;;
18685;SDS011;9473;52.342;13.110;2023-04-01T05:29:44;5.95;;;1.52;;
18685;SDS011;9473;52.342;13.110;2023-04-01T05:32:11;5.07;;;1.65;;
18685;SDS011;9473;52.342;13.110;2023-04-01T05:34:38;3.42;;;1.33;;
18685;SDS011;9473;52.342;13.110;2023-04-01T05:37:06;5.20;;;1.73;;
18685;SDS011;9473;52.342;13.110;2023-04-01T05:39:35;3.25;;;1.65;;
18685;SDS011;9473;52.342;13.110;2023-04-01T05:42:02;5.65;;;1.52;;
18685;SDS011;9473;52.342;13.110;2023-04-01T05:44:29;5.32;;;1.63;;
18685;SDS011;9473;52.342;13.110;2023-04-01T05:46:56;8.80;;;1.95;;
18685;SDS011;9473;52.342;13.110;2023-04-01T05:49:23;5.63;;;1.60;;
18685;SDS011;9473;52.342;13.110;2023-04-01T05:51:50;6.05;;;1.45;;
18685;SDS011;9473;52.342;13.110;2023-04-01T05:54:19;5.78;;;1.55;;
18685;SDS011;9473;52.342;13.110;2023-04-01T05:56:46;5.00;;;1.90;;
18685;SDS011;9473;52.342;13.110;2023-04-01T05:59:13;4.15;;;1.50;;
18685;SDS011;9473;52.342;13.110;2023-04-01T06:01:40;5.10;;;1.30;;
18685;SDS011;9473;52.342;13.110;2023-04-01T06:04:09;6.30;;;1.48;;
18685;SDS011;9473;52.342;13.110;2023-04-01T06:06:36;3.05;;;1.42;;
18685;SDS011;9473;52.342;13.110;2023-04-01T06:09:07;4.05;;;1.67;;
18685;SDS011;9473;52.342;13.110;2023-04-01T06:11:37;4.45;;;1.83;;
18685;SDS011;9473;52.342;13.110;2023-04-01T06:14:10;5.28;;;1.60;;
18685;SDS011;9473;52.342;13.110;2023-04-01T06:16:42;4.78;;;1.30;;
18685;SDS011;9473;52.342;13.110;2023-04-01T06:19:17;3.45;;;1.50;;
18685;SDS011;9473;52.342;13.110;2023-04-01T06:21:53;6.20;;;1.65;;
18685;SDS011;9473;52.342;13.110;2023-04-01T06:24:30;5.57;;;1.40;;
18685;SDS011;9473;52.342;13.110;2023-04-01T06:27:03;4.97;;;1.50;;
18685;SDS011;9473;52.342;13.110;2023-04-01T06:29:40;9.27;;;1.60;;
18685;SDS011;9473;52.342;13.110;2023-04-01T06:35:07;3.78;;;1.45;;
18685;SDS011;9473;52.342;13.110;2023-04-01T06:37:45;4.97;;;1.40;;
18685;SDS011;9473;52.342;13.110;2023-04-01T06:40:19;2.60;;;1.42;;
18685;SDS011;9473;52.342;13.110;2023-04-01T06:42:54;5.35;;;1.50;;
18685;SDS011;9473;52.342;13.110;2023-04-01T06:45:28;4.05;;;1.33;;
18685;SDS011;9473;52.342;13.110;2023-04-01T06:48:01;8.15;;;1.65;;
18685;SDS011;9473;52.342;13.110;2023-04-01T06:50:30;7.22;;;1.65;;
18685;SDS011;9473;52.342;13.110;2023-04-01T06:53:00;6.18;;;1.35;;
18685;SDS011;9473;52.342;13.110;2023-04-01T06:55:31;5.72;;;1.63;;
18685;SDS011;9473;52.342;13.110;2023-04-01T06:58:02;5.80;;;1.50;;
18685;SDS011;9473;52.342;13.110;2023-04-01T07:00:31;7.30;;;1.67;;
18685;SDS011;9473;52.342;13.110;2023-04-01T07:03:05;5.70;;;1.80;;
18685;SDS011;9473;52.342;13.110;2023-04-01T07:05:33;5.07;;;1.85;;
18685;SDS011;9473;52.342;13.110;2023-04-01T07:08:01;4.93;;;1.70;;
18685;SDS011;9473;52.342;13.110;2023-04-01T07:10:31;6.07;;;1.70;;
18685;SDS011;9473;52.342;13.110;2023-04-01T07:13:02;4.70;;;1.50;;
18685;SDS011;9473;52.342;13.110;2023-04-01T07:15:33;5.18;;;1.70;;
18685;SDS011;9473;52.342;13.110;2023-04-01T07:18:02;4.82;;;1.50;;
18685;SDS011;9473;52.342;13.110;2023-04-01T07:20:30;10.27;;;1.73;;
18685;SDS011;9473;52.342;13.110;2023-04-01T07:22:58;4.85;;;1.65;;
18685;SDS011;9473;52.342;13.110;2023-04-01T07:25:27;6.18;;;1.60;;
18685;SDS011;9473;52.342;13.110;2023-04-01T07:27:56;4.75;;;1.45;;
18685;SDS011;9473;52.342;13.110;2023-04-01T07:30:24;4.43;;;1.50;;
18685;SDS011;9473;52.342;13.110;2023-04-01T07:32:54;5.57;;;1.58;;
18685;SDS011;9473;52.342;13.110;2023-04-01T07:35:23;4.63;;;1.48;;
18685;SDS011;9473;52.342;13.110;2023-04-01T07:38:01;5.03;;;1.50;;
18685;SDS011;9473;52.342;13.110;2023-04-01T07:40:31;2.85;;;1.42;;
18685;SDS011;9473;52.342;13.110;2023-04-01T07:43:10;4.03;;;1.55;;
18685;SDS011;9473;52.342;13.110;2023-04-01T07:45:45;5.43;;;1.65;;
18685;SDS011;9473;52.342;13.110;2023-04-01T07:48:18;4.28;;;1.80;;
18685;SDS011;9473;52.342;13.110;2023-04-01T07:50:46;3.97;;;1.60;;
18685;SDS011;9473;52.342;13.110;2023-04-01T07:53:18;5.18;;;1.42;;
18685;SDS011;9473;52.342;13.110;2023-04-01T07:55:50;6.95;;;1.50;;
18685;SDS011;9473;52.342;13.110;2023-04-01T07:58:19;3.97;;;1.60;;
18685;SDS011;9473;52.342;13.110;2023-04-01T08:00:50;6.38;;;1.65;;
18685;SDS011;9473;52.342;13.110;2023-04-01T08:03:26;4.65;;;1.27;;
18685;SDS011;9473;52.342;13.110;2023-04-01T08:05:57;5.13;;;1.42;;
18685;SDS011;9473;52.342;13.110;2023-04-01T08:08:28;5.40;;;1.58;;
18685;SDS011;9473;52.342;13.110;2023-04-01T08:11:01;6.13;;;1.38;;
18685;SDS011;9473;52.342;13.110;2023-04-01T08:13:35;4.45;;;1.80;;
18685;SDS011;9473;52.342;13.110;2023-04-01T08:16:10;3.65;;;1.63;;
18685;SDS011;9473;52.342;13.110;2023-04-01T08:18:41;3.88;;;1.40;;
18685;SDS011;9473;52.342;13.110;2023-04-01T08:21:11;3.03;;;1.33;;
18685;SDS011;9473;52.342;13.110;2023-04-01T08:23:40;5.00;;;1.40;;
18685;SDS011;9473;52.342;13.110;2023-04-01T08:26:10;6.47;;;1.42;;
18685;SDS011;9473;52.342;13.110;2023-04-01T08:28:40;3.85;;;1.42;;
18685;SDS011;9473;52.342;13.110;2023-04-01T08:31:12;5.32;;;1.48;;
18685;SDS011;9473;52.342;13.110;2023-04-01T08:33:40;6.38;;;1.58;;
18685;SDS011;9473;52.342;13.110;2023-04-01T08:36:09;6.43;;;1.58;;
18685;SDS011;9473;52.342;13.110;2023-04-01T08:38:38;4.15;;;1.30;;
18685;SDS011;9473;52.342;13.110;2023-04-01T08:41:10;4.97;;;1.50;;
18685;SDS011;9473;52.342;13.110;2023-04-01T08:43:48;4.40;;;1.65;;
18685;SDS011;9473;52.342;13.110;2023-04-01T08:46:21;7.82;;;1.50;;
18685;SDS011;9473;52.342;13.110;2023-04-01T08:48:55;5.28;;;1.45;;
18685;SDS011;9473;52.342;13.110;2023-04-01T08:51:36;4.18;;;1.95;;
18685;SDS011;9473;52.342;13.110;2023-04-01T08:54:19;6.78;;;1.80;;
18685;SDS011;9473;52.342;13.110;2023-04-01T08:56:53;8.57;;;1.70;;
18685;SDS011;9473;52.342;13.110;2023-04-01T08:59:27;5.07;;;1.60;;
18685;SDS011;9473;52.342;13.110;2023-04-01T09:02:10;6.28;;;1.50;;
18685;SDS011;9473;52.342;13.110;2023-04-01T09:04:50;5.85;;;1.40;;
18685;SDS011;9473;52.342;13.110;2023-04-01T09:07:27;3.88;;;1.60;;
18685;SDS011;9473;52.342;13.110;2023-04-01T09:10:11;2.70;;;1.23;;
18685;SDS011;9473;52.342;13.110;2023-04-01T09:12:48;5.47;;;1.30;;
18685;SDS011;9473;52.342;13.110;2023-04-01T09:15:30;3.83;;;1.40;;
18685;SDS011;9473;52.342;13.110;2023-04-01T09:18:04;4.30;;;1.65;;
18685;SDS011;9473;52.342;13.110;2023-04-01T09:20:50;4.32;;;1.75;;
18685;SDS011;9473;52.342;13.110;2023-04-01T09:23:29;6.68;;;1.55;;
18685;SDS011;9473;52.342;13.110;2023-04-01T09:26:03;5.10;;;1.33;;
18685;SDS011;9473;52.342;13.110;2023-04-01T09:28:34;3.55;;;1.63;;
18685;SDS011;9473;52.342;13.110;2023-04-01T09:31:09;3.65;;;1.50;;
18685;SDS011;9473;52.342;13.110;2023-04-01T09:34:03;5.18;;;1.30;;
18685;SDS011;9473;52.342;13.110;2023-04-01T09:36:37;2.88;;;1.50;;
18685;SDS011;9473;52.342;13.110;2023-04-01T09:39:32;2.58;;;1.50;;
18685;SDS011;9473;52.342;13.110;2023-04-01T09:48:30;2.47;;;1.10;;
18685;SDS011;9473;52.342;13.110;2023-04-01T09:51:12;2.15;;;1.00;;
18685;SDS011;9473;52.342;13.110;2023-04-01T10:09:39;4.18;;;1.33;;
18685;SDS011;9473;52.342;13.110;2023-04-01T10:12:34;2.50;;;1.00;;
18685;SDS011;9473;52.342;13.110;2023-04-01T10:15:16;3.13;;;1.08;;
18685;SDS011;9473;52.342;13.110;2023-04-01T10:18:36;3.42;;;1.10;;
18685;SDS011;9473;52.342;13.110;2023-04-01T10:24:25;3.80;;;1.08;;
18685;SDS011;9473;52.342;13.110;2023-04-01T10:30:26;3.10;;;0.98;;
18685;SDS011;9473;52.342;13.110;2023-04-01T10:33:16;2.20;;;0.90;;
18685;SDS011;9473;52.342;13.110;2023-04-01T10:38:45;2.83;;;1.00;;
18685;SDS011;9473;52.342;13.110;2023-04-01T10:41:30;3.95;;;1.05;;
18685;SDS011;9473;52.342;13.110;2023-04-01T10:44:05;2.70;;;1.85;;
18685;SDS011;9473;52.342;13.110;2023-04-01T10:46:56;3.60;;;2.13;;
18685;SDS011;9473;52.342;13.110;2023-04-01T10:52:21;5.90;;;2.65;;
18685;SDS011;9473;52.342;13.110;2023-04-01T10:54:52;4.43;;;2.35;;
18685;SDS011;9473;52.342;13.110;2023-04-01T11:00:24;6.57;;;3.28;;
18685;SDS011;9473;52.342;13.110;2023-04-01T11:03:08;7.50;;;3.08;;
18685;SDS011;9473;52.342;13.110;2023-04-01T11:06:06;6.30;;;3.60;;
18685;SDS011;9473;52.342;13.110;2023-04-01T11:09:01;7.13;;;3.65;;
18685;SDS011;9473;52.342;13.110;2023-04-01T11:11:38;5.60;;;3.63;;
18685;SDS011;9473;52.342;13.110;2023-04-01T11:14:13;5.53;;;3.20;;
18685;SDS011;9473;52.342;13.110;2023-04-01T11:16:47;6.15;;;3.42;;
18685;SDS011;9473;52.342;13.110;2023-04-01T11:22:10;6.03;;;3.60;;
18685;SDS011;9473;52.342;13.110;2023-04-01T11:24:55;5.22;;;3.35;;
18685;SDS011;9473;52.342;13.110;2023-04-01T11:27:35;6.63;;;3.80;;
18685;SDS011;9473;52.342;13.110;2023-04-01T11:30:07;7.13;;;4.15;;
18685;SDS011;9473;52.342;13.110;2023-04-01T11:32:42;8.55;;;4.50;;
18685;SDS011;9473;52.342;13.110;2023-04-01T11:35:23;10.23;;;4.20;;
18685;SDS011;9473;52.342;13.110;2023-04-01T11:37:57;6.43;;;4.20;;
18685;SDS011;9473;52.342;13.110;2023-04-01T11:40:27;7.63;;;4.25;;
18685;SDS011;9473;52.342;13.110;2023-04-01T11:43:00;10.20;;;5.55;;
18685;SDS011;9473;52.342;13.110;2023-04-01T11:45:32;9.00;;;5.28;;
18685;SDS011;9473;52.342;13.110;2023-04-01T11:48:07;8.80;;;4.68;;
18685;SDS011;9473;52.342;13.110;2023-04-01T11:50:39;9.00;;;5.40;;
18685;SDS011;9473;52.342;13.110;2023-04-01T11:53:14;8.60;;;5.20;;
18685;SDS011;9473;52.342;13.110;2023-04-01T11:55:46;6.85;;;3.95;;
18685;SDS011;9473;52.342;13.110;2023-04-01T12:01:04;8.40;;;5.32;;
18685;SDS011;9473;52.342;13.110;2023-04-01T12:03:43;8.75;;;5.78;;
18685;SDS011;9473;52.342;13.110;2023-04-01T12:09:20;9.32;;;5.78;;
18685;SDS011;9473;52.342;13.110;2023-04-01T12:11:51;8.52;;;4.63;;
18685;SDS011;9473;52.342;13.110;2023-04-01T12:14:20;6.68;;;4.43;;
18685;SDS011;9473;52.342;13.110;2023-04-01T12:16:55;7.85;;;5.10;;
18685;SDS011;9473;52.342;13.110;2023-04-01T12:19:26;6.90;;;4.65;;
18685;SDS011;9473;52.342;13.110;2023-04-01T12:21:58;7.28;;;4.72;;
18685;SDS011;9473;52.342;13.110;2023-04-01T12:30:03;5.85;;;3.40;;
18685;SDS011;9473;52.342;13.110;2023-04-01T12:32:34;4.40;;;3.10;;
18685;SDS011;9473;52.342;13.110;2023-04-01T12:35:14;4.03;;;2.50;;
18685;SDS011;9473;52.342;13.110;2023-04-01T12:37:44;4.15;;;2.75;;
18685;SDS011;9473;52.342;13.110;2023-04-01T12:40:30;3.88;;;2.55;;
18685;SDS011;9473;52.342;13.110;2023-04-01T12:43:15;3.95;;;2.47;;
18685;SDS011;9473;52.342;13.110;2023-04-01T12:45:47;4.50;;;2.58;;
18685;SDS011;9473;52.342;13.110;2023-04-01T12:48:34;5.03;;;2.33;;
18685;SDS011;9473;52.342;13.110;2023-04-01T12:51:09;5.30;;;2.70;;
18685;SDS011;9473;52.342;13.110;2023-04-01T12:53:43;3.55;;;2.05;;
18685;SDS011;9473;52.342;13.110;2023-04-01T12:56:13;4.25;;;2.63;;
18685;SDS011;9473;52.342;13.110;2023-04-01T12:58:52;6.43;;;4.00;;
18685;SDS011;9473;52.342;13.110;2023-04-01T13:01:30;5.97;;;3.80;;
18685;SDS011;9473;52.342;13.110;2023-04-01T13:04:19;8.95;;;3.90;;
18685;SDS011;9473;52.342;13.110;2023-04-01T13:13:08;4.43;;;2.78;;
18685;SDS011;9473;52.342;13.110;2023-04-01T13:15:41;6.35;;;3.17;;
18685;SDS011;9473;52.342;13.110;2023-04-01T13:18:16;4.53;;;2.97;;
18685;SDS011;9473;52.342;13.110;2023-04-01T13:20:47;7.13;;;3.40;;
18685;SDS011;9473;52.342;13.110;2023-04-01T13:26:10;7.28;;;3.33;;
18685;SDS011;9473;52.342;13.110;2023-04-01T13:28:40;4.78;;;3.00;;
18685;SDS011;9473;52.342;13.110;2023-04-01T13:31:12;4.47;;;3.25;;
18685;SDS011;9473;52.342;13.110;2023-04-01T13:33:48;5.18;;;3.38;;
18685;SDS011;9473;52.342;13.110;2023-04-01T13:36:19;5.65;;;3.25;;
18685;SDS011;9473;52.342;13.110;2023-04-01T13:39:01;6.90;;;3.08;;
18685;SDS011;9473;52.342;13.110;2023-04-01T13:41:38;5.95;;;3.88;;
18685;SDS011;9473;52.342;13.110;2023-04-01T13:44:07;4.88;;;3.30;;
18685;SDS011;9473;52.342;13.110;2023-04-01T13:49:30;6.03;;;3.63;;
18685;SDS011;9473;52.342;13.110;2023-04-01T13:54:43;7.65;;;4.70;;
18685;SDS011;9473;52.342;13.110;2023-04-01T13:57:17;7.85;;;4.35;;
18685;SDS011;9473;52.342;13.110;2023-04-01T13:59:55;7.57;;;4.50;;
18685;SDS011;9473;52.342;13.110;2023-04-01T14:03:00;9.07;;;3.92;;
18685;SDS011;9473;52.342;13.110;2023-04-01T14:05:40;7.85;;;4.22;;
18685;SDS011;9473;52.342;13.110;2023-04-01T14:08:15;5.80;;;3.80;;
18685;SDS011;9473;52.342;13.110;2023-04-01T14:10:45;7.03;;;3.90;;
18685;SDS011;9473;52.342;13.110;2023-04-01T14:13:15;7.68;;;4.20;;
18685;SDS011;9473;52.342;13.110;2023-04-01T14:15:54;7.63;;;4.80;;
18685;SDS011;9473;52.342;13.110;2023-04-01T14:18:41;7.30;;;4.60;;
18685;SDS011;9473;52.342;13.110;2023-04-01T14:21:16;7.15;;;4.72;;
18685;SDS011;9473;52.342;13.110;2023-04-01T14:23:57;8.27;;;4.93;;
18685;SDS011;9473;52.342;13.110;2023-04-01T14:26:35;7.55;;;5.13;;
18685;SDS011;9473;52.342;13.110;2023-04-01T14:29:12;7.18;;;4.45;;
18685;SDS011;9473;52.342;13.110;2023-04-01T14:31:56;7.38;;;4.63;;
18685;SDS011;9473;52.342;13.110;2023-04-01T14:34:28;6.95;;;4.50;;
18685;SDS011;9473;52.342;13.110;2023-04-01T14:37:09;9.10;;;5.05;;
18685;SDS011;9473;52.342;13.110;2023-04-01T14:39:56;8.30;;;4.90;;
18685;SDS011;9473;52.342;13.110;2023-04-01T14:42:45;7.43;;;4.10;;
18685;SDS011;9473;52.342;13.110;2023-04-01T14:45:27;7.63;;;4.10;;
18685;SDS011;9473;52.342;13.110;2023-04-01T14:47:58;7.25;;;3.88;;
18685;SDS011;9473;52.342;13.110;2023-04-01T14:50:26;6.63;;;3.95;;
18685;SDS011;9473;52.342;13.110;2023-04-01T14:52:57;8.20;;;4.85;;
18685;SDS011;9473;52.342;13.110;2023-04-01T14:55:27;12.88;;;6.95;;
18685;SDS011;9473;52.342;13.110;2023-04-01T14:57:58;11.73;;;6.32;;
18685;SDS011;9473;52.342;13.110;2023-04-01T15:00:25;13.05;;;7.82;;
18685;SDS011;9473;52.342;13.110;2023-04-01T15:02:54;13.40;;;7.43;;
18685;SDS011;9473;52.342;13.110;2023-04-01T15:05:28;12.52;;;6.57;;
18685;SDS011;9473;52.342;13.110;2023-04-01T15:08:01;11.15;;;7.15;;
18685;SDS011;9473;52.342;13.110;2023-04-01T15:10:33;13.00;;;7.50;;
18685;SDS011;9473;52.342;13.110;2023-04-01T15:13:04;12.95;;;7.32;;
18685;SDS011;9473;52.342;13.110;2023-04-01T15:15:36;12.07;;;7.25;;
18685;SDS011;9473;52.342;13.110;2023-04-01T15:18:07;12.48;;;7.32;;
18685;SDS011;9473;52.342;13.110;2023-04-01T15:20:47;13.98;;;8.38;;
18685;SDS011;9473;52.342;13.110;2023-04-01T15:23:21;13.82;;;7.45;;
18685;SDS011;9473;52.342;13.110;2023-04-01T15:25:59;12.20;;;7.35;;
18685;SDS011;9473;52.342;13.110;2023-04-01T15:28:31;12.25;;;7.43;;
18685;SDS011;9473;52.342;13.110;2023-04-01T15:31:01;13.27;;;7.80;;
18685;SDS011;9473;52.342;13.110;2023-04-01T15:33:33;12.75;;;7.85;;
18685;SDS011;9473;52.342;13.110;2023-04-01T15:36:05;14.40;;;7.78;;
18685;SDS011;9473;52.342;13.110;2023-04-01T15:38:38;11.60;;;6.93;;
18685;SDS011;9473;52.342;13.110;2023-04-01T15:41:09;12.20;;;6.82;;
18685;SDS011;9473;52.342;13.110;2023-04-01T15:43:40;11.07;;;6.43;;
18685;SDS011;9473;52.342;13.110;2023-04-01T15:46:09;14.20;;;6.57;;
18685;SDS011;9473;52.342;13.110;2023-04-01T15:48:43;12.18;;;6.85;;
18685;SDS011;9473;52.342;13.110;2023-04-01T15:51:30;11.60;;;7.07;;
18685;SDS011;9473;52.342;13.110;2023-04-01T15:54:07;11.20;;;6.57;;
18685;SDS011;9473;52.342;13.110;2023-04-01T15:56:45;15.75;;;7.18;;
18685;SDS011;9473;52.342;13.110;2023-04-01T15:59:21;11.55;;;6.90;;
18685;SDS011;9473;52.342;13.110;2023-04-01T16:01:54;12.13;;;6.15;;
18685;SDS011;9473;52.342;13.110;2023-04-01T16:04:30;12.10;;;6.55;;
18685;SDS011;9473;52.342;13.110;2023-04-01T16:07:07;10.45;;;6.15;;
18685;SDS011;9473;52.342;13.110;2023-04-01T16:09:41;12.80;;;6.82;;
18685;SDS011;9473;52.342;13.110;2023-04-01T16:12:12;10.85;;;6.45;;
18685;SDS011;9473;52.342;13.110;2023-04-01T16:14:44;11.02;;;6.20;;
18685;SDS011;9473;52.342;13.110;2023-04-01T16:17:19;13.27;;;6.93;;
18685;SDS011;9473;52.342;13.110;2023-04-01T16:19:51;13.23;;;7.00;;
18685;SDS011;9473;52.342;13.110;2023-04-01T16:22:19;9.85;;;6.28;;
18685;SDS011;9473;52.342;13.110;2023-04-01T16:24:51;10.55;;;6.88;;